sensor_id;sensor_type;location;lat;lon;timestamp;temperature;humidity
38606;DHT22;24365;48.446;8.850;2024-02-26T00:02:30;3.40;69.70
38606;DHT22;24365;48.446;8.850;2024-02-26T00:07:32;3.40;69.70
38606;DHT22;24365;48.446;8.850;2024-02-26T00:12:33;3.40;69.50
38606;DHT22;24365;48.446;8.850;2024-02-26T00:17:34;3.40;69.80
38606;DHT22;24365;48.446;8.850;2024-02-26T00:22:35;3.40;70.20
38606;DHT22;24365;48.446;8.850;2024-02-26T00:27:39;3.40;69.80
38606;DHT22;24365;48.446;8.850;2024-02-26T00:32:42;3.50;70.10
38606;DHT22;24365;48.446;8.850;2024-02-26T00:37:44;3.50;70.90
38606;DHT22;24365;48.446;8.850;2024-02-26T00:42:45;3.50;71.30
38606;DHT22;24365;48.446;8.850;2024-02-26T00:47:46;3.50;70.60
38606;DHT22;24365;48.446;8.850;2024-02-26T00:52:50;3.40;71.20
38606;DHT22;24365;48.446;8.850;2024-02-26T00:57:51;3.50;71.60
38606;DHT22;24365;48.446;8.850;2024-02-26T01:02:52;3.60;70.00
38606;DHT22;24365;48.446;8.850;2024-02-26T01:07:53;3.50;70.50
38606;DHT22;24365;48.446;8.850;2024-02-26T01:12:53;3.50;70.50
38606;DHT22;24365;48.446;8.850;2024-02-26T01:17:54;3.50;70.60
38606;DHT22;24365;48.446;8.850;2024-02-26T01:22:55;3.50;71.30
38606;DHT22;24365;48.446;8.850;2024-02-26T01:27:56;3.60;70.80
38606;DHT22;24365;48.446;8.850;2024-02-26T01:32:57;3.60;71.20
38606;DHT22;24365;48.446;8.850;2024-02-26T01:37:58;3.60;71.00
38606;DHT22;24365;48.446;8.850;2024-02-26T01:42:59;3.60;71.90
38606;DHT22;24365;48.446;8.850;2024-02-26T01:48:01;3.80;71.10
38606;DHT22;24365;48.446;8.850;2024-02-26T01:53:02;3.60;70.80
38606;DHT22;24365;48.446;8.850;2024-02-26T01:58:03;3.70;72.00
38606;DHT22;24365;48.446;8.850;2024-02-26T02:03:04;3.70;71.60
38606;DHT22;24365;48.446;8.850;2024-02-26T02:08:05;3.70;72.90
38606;DHT22;24365;48.446;8.850;2024-02-26T02:13:07;3.60;73.10
38606;DHT22;24365;48.446;8.850;2024-02-26T02:18:08;3.80;72.20
38606;DHT22;24365;48.446;8.850;2024-02-26T02:23:08;3.70;71.80
38606;DHT22;24365;48.446;8.850;2024-02-26T02:28:11;3.70;71.70
38606;DHT22;24365;48.446;8.850;2024-02-26T02:33:11;3.70;72.40
38606;DHT22;24365;48.446;8.850;2024-02-26T02:38:13;3.70;72.40
38606;DHT22;24365;48.446;8.850;2024-02-26T02:43:14;3.80;72.40
38606;DHT22;24365;48.446;8.850;2024-02-26T02:48:14;3.90;72.70
38606;DHT22;24365;48.446;8.850;2024-02-26T02:53:15;3.90;73.60
38606;DHT22;24365;48.446;8.850;2024-02-26T02:58:17;3.90;74.60
38606;DHT22;24365;48.446;8.850;2024-02-26T03:03:17;3.80;76.10
38606;DHT22;24365;48.446;8.850;2024-02-26T03:08:18;3.80;76.60
38606;DHT22;24365;48.446;8.850;2024-02-26T03:13:20;3.80;76.80
38606;DHT22;24365;48.446;8.850;2024-02-26T03:18:20;3.70;78.30
38606;DHT22;24365;48.446;8.850;2024-02-26T03:23:22;3.70;77.60
38606;DHT22;24365;48.446;8.850;2024-02-26T03:28:23;3.80;77.90
38606;DHT22;24365;48.446;8.850;2024-02-26T03:33:24;3.80;77.10
38606;DHT22;24365;48.446;8.850;2024-02-26T03:38:24;3.80;77.90
38606;DHT22;24365;48.446;8.850;2024-02-26T03:43:25;3.70;76.80
38606;DHT22;24365;48.446;8.850;2024-02-26T03:48:26;3.70;76.90
38606;DHT22;24365;48.446;8.850;2024-02-26T03:53:28;3.80;77.10
38606;DHT22;24365;48.446;8.850;2024-02-26T03:58:29;3.80;77.50
38606;DHT22;24365;48.446;8.850;2024-02-26T04:03:30;3.90;78.70
38606;DHT22;24365;48.446;8.850;2024-02-26T04:08:31;3.80;80.90
38606;DHT22;24365;48.446;8.850;2024-02-26T04:13:33;3.80;79.80
38606;DHT22;24365;48.446;8.850;2024-02-26T04:18:34;3.80;81.20
38606;DHT22;24365;48.446;8.850;2024-02-26T04:23:36;3.80;81.50
38606;DHT22;24365;48.446;8.850;2024-02-26T04:28:37;3.80;81.30
38606;DHT22;24365;48.446;8.850;2024-02-26T04:33:38;3.80;81.60
38606;DHT22;24365;48.446;8.850;2024-02-26T04:38:41;3.80;81.20
38606;DHT22;24365;48.446;8.850;2024-02-26T04:43:41;3.80;82.50
38606;DHT22;24365;48.446;8.850;2024-02-26T04:48:43;3.80;82.40
38606;DHT22;24365;48.446;8.850;2024-02-26T04:53:46;3.90;83.10
38606;DHT22;24365;48.446;8.850;2024-02-26T04:58:47;3.80;82.80
38606;DHT22;24365;48.446;8.850;2024-02-26T05:03:48;4.00;82.00
38606;DHT22;24365;48.446;8.850;2024-02-26T05:08:49;4.00;81.80
38606;DHT22;24365;48.446;8.850;2024-02-26T05:13:50;4.00;81.80
38606;DHT22;24365;48.446;8.850;2024-02-26T05:18:54;4.00;81.10
38606;DHT22;24365;48.446;8.850;2024-02-26T05:23:55;3.90;83.00
38606;DHT22;24365;48.446;8.850;2024-02-26T05:28:55;3.90;83.10
38606;DHT22;24365;48.446;8.850;2024-02-26T05:34:00;3.90;84.60
38606;DHT22;24365;48.446;8.850;2024-02-26T05:39:01;3.90;83.90
38606;DHT22;24365;48.446;8.850;2024-02-26T05:44:02;3.90;84.20
38606;DHT22;24365;48.446;8.850;2024-02-26T05:49:04;3.90;84.50
38606;DHT22;24365;48.446;8.850;2024-02-26T05:54:05;3.90;83.70
38606;DHT22;24365;48.446;8.850;2024-02-26T05:59:05;3.90;85.50
38606;DHT22;24365;48.446;8.850;2024-02-26T06:04:06;3.90;84.60
38606;DHT22;24365;48.446;8.850;2024-02-26T06:09:07;4.00;83.90
38606;DHT22;24365;48.446;8.850;2024-02-26T06:14:08;4.00;83.30
38606;DHT22;24365;48.446;8.850;2024-02-26T06:19:10;4.00;84.60
38606;DHT22;24365;48.446;8.850;2024-02-26T06:24:11;3.90;85.30
38606;DHT22;24365;48.446;8.850;2024-02-26T06:29:12;4.00;84.60
38606;DHT22;24365;48.446;8.850;2024-02-26T06:34:13;4.00;85.90
38606;DHT22;24365;48.446;8.850;2024-02-26T06:39:14;4.00;86.00
38606;DHT22;24365;48.446;8.850;2024-02-26T06:44:16;4.00;86.10
38606;DHT22;24365;48.446;8.850;2024-02-26T06:49:17;4.00;85.40
38606;DHT22;24365;48.446;8.850;2024-02-26T06:54:18;4.00;86.00
38606;DHT22;24365;48.446;8.850;2024-02-26T06:59:19;4.10;86.60
38606;DHT22;24365;48.446;8.850;2024-02-26T07:04:20;4.10;87.40
38606;DHT22;24365;48.446;8.850;2024-02-26T07:09:21;4.20;87.30
38606;DHT22;24365;48.446;8.850;2024-02-26T07:14:22;4.20;88.40
38606;DHT22;24365;48.446;8.850;2024-02-26T07:19:25;4.30;88.70
38606;DHT22;24365;48.446;8.850;2024-02-26T07:24:26;4.30;89.10
38606;DHT22;24365;48.446;8.850;2024-02-26T07:29:26;4.30;88.90
38606;DHT22;24365;48.446;8.850;2024-02-26T07:34:27;4.30;89.00
38606;DHT22;24365;48.446;8.850;2024-02-26T07:39:29;4.30;88.40
38606;DHT22;24365;48.446;8.850;2024-02-26T07:44:30;4.30;90.50
38606;DHT22;24365;48.446;8.850;2024-02-26T07:49:32;4.40;91.20
38606;DHT22;24365;48.446;8.850;2024-02-26T07:54:32;4.50;91.20
38606;DHT22;24365;48.446;8.850;2024-02-26T07:59:33;4.50;91.10
38606;DHT22;24365;48.446;8.850;2024-02-26T08:04:35;4.60;91.30
38606;DHT22;24365;48.446;8.850;2024-02-26T08:09:36;4.80;91.00
38606;DHT22;24365;48.446;8.850;2024-02-26T08:14:37;4.80;90.50
38606;DHT22;24365;48.446;8.850;2024-02-26T08:19:38;4.80;90.70
38606;DHT22;24365;48.446;8.850;2024-02-26T08:24:39;4.90;91.50
38606;DHT22;24365;48.446;8.850;2024-02-26T08:29:40;5.00;91.20
38606;DHT22;24365;48.446;8.850;2024-02-26T08:34:41;5.10;92.00
38606;DHT22;24365;48.446;8.850;2024-02-26T08:39:42;5.10;92.00
38606;DHT22;24365;48.446;8.850;2024-02-26T08:44:43;5.20;91.70
38606;DHT22;24365;48.446;8.850;2024-02-26T08:49:45;5.30;91.50
38606;DHT22;24365;48.446;8.850;2024-02-26T08:54:46;5.30;91.50
38606;DHT22;24365;48.446;8.850;2024-02-26T08:59:46;5.40;91.30
38606;DHT22;24365;48.446;8.850;2024-02-26T09:04:47;5.40;91.00
38606;DHT22;24365;48.446;8.850;2024-02-26T09:09:48;5.50;90.00
38606;DHT22;24365;48.446;8.850;2024-02-26T09:14:49;5.60;90.30
38606;DHT22;24365;48.446;8.850;2024-02-26T09:19:50;5.80;91.20
38606;DHT22;24365;48.446;8.850;2024-02-26T09:24:51;6.10;91.70
38606;DHT22;24365;48.446;8.850;2024-02-26T09:29:54;6.50;92.30
38606;DHT22;24365;48.446;8.850;2024-02-26T09:34:54;6.80;89.70
38606;DHT22;24365;48.446;8.850;2024-02-26T09:39:55;7.10;88.30
38606;DHT22;24365;48.446;8.850;2024-02-26T09:44:56;7.40;85.50
38606;DHT22;24365;48.446;8.850;2024-02-26T09:50:02;7.70;84.30
38606;DHT22;24365;48.446;8.850;2024-02-26T09:55:04;7.80;81.40
38606;DHT22;24365;48.446;8.850;2024-02-26T10:00:05;8.20;81.10
38606;DHT22;24365;48.446;8.850;2024-02-26T10:05:10;8.30;80.20
38606;DHT22;24365;48.446;8.850;2024-02-26T10:10:16;8.30;79.60
38606;DHT22;24365;48.446;8.850;2024-02-26T10:15:17;8.30;79.00
38606;DHT22;24365;48.446;8.850;2024-02-26T10:20:18;8.20;77.70
38606;DHT22;24365;48.446;8.850;2024-02-26T10:25:22;8.20;76.20
38606;DHT22;24365;48.446;8.850;2024-02-26T10:30:23;8.30;77.90
38606;DHT22;24365;48.446;8.850;2024-02-26T10:35:27;8.40;78.30
38606;DHT22;24365;48.446;8.850;2024-02-26T10:40:29;8.50;77.10
38606;DHT22;24365;48.446;8.850;2024-02-26T10:45:30;8.60;75.80
38606;DHT22;24365;48.446;8.850;2024-02-26T10:50:32;8.80;74.80
38606;DHT22;24365;48.446;8.850;2024-02-26T10:55:33;8.90;73.20
38606;DHT22;24365;48.446;8.850;2024-02-26T11:00:36;9.00;73.10
38606;DHT22;24365;48.446;8.850;2024-02-26T11:05:38;9.10;69.50
38606;DHT22;24365;48.446;8.850;2024-02-26T11:10:39;9.30;69.50
38606;DHT22;24365;48.446;8.850;2024-02-26T11:15:40;9.20;69.50
38606;DHT22;24365;48.446;8.850;2024-02-26T11:20:42;9.30;70.10
38606;DHT22;24365;48.446;8.850;2024-02-26T11:25:43;9.40;70.70
38606;DHT22;24365;48.446;8.850;2024-02-26T11:30:45;9.60;69.60
38606;DHT22;24365;48.446;8.850;2024-02-26T11:35:47;9.80;69.00
38606;DHT22;24365;48.446;8.850;2024-02-26T11:40:48;10.00;68.90
38606;DHT22;24365;48.446;8.850;2024-02-26T11:45:49;10.10;68.10
38606;DHT22;24365;48.446;8.850;2024-02-26T11:50:53;10.10;67.00
38606;DHT22;24365;48.446;8.850;2024-02-26T12:01:56;10.10;66.90
38606;DHT22;24365;48.446;8.850;2024-02-26T12:11:48;10.20;65.60
38606;DHT22;24365;48.446;8.850;2024-02-26T12:16:49;10.20;66.50
38606;DHT22;24365;48.446;8.850;2024-02-26T12:21:51;10.40;64.60
38606;DHT22;24365;48.446;8.850;2024-02-26T12:26:53;10.50;62.30
38606;DHT22;24365;48.446;8.850;2024-02-26T12:31:54;10.70;57.60
38606;DHT22;24365;48.446;8.850;2024-02-26T12:36:55;10.70;59.20
38606;DHT22;24365;48.446;8.850;2024-02-26T12:41:57;11.00;58.20
38606;DHT22;24365;48.446;8.850;2024-02-26T12:47:03;11.20;55.30
38606;DHT22;24365;48.446;8.850;2024-02-26T12:52:04;11.30;54.20
38606;DHT22;24365;48.446;8.850;2024-02-26T12:57:06;11.50;49.60
38606;DHT22;24365;48.446;8.850;2024-02-26T13:02:08;11.70;47.70
38606;DHT22;24365;48.446;8.850;2024-02-26T13:07:09;11.90;46.00
38606;DHT22;24365;48.446;8.850;2024-02-26T13:12:11;12.00;46.20
38606;DHT22;24365;48.446;8.850;2024-02-26T13:17:13;12.00;44.30
38606;DHT22;24365;48.446;8.850;2024-02-26T13:22:14;12.20;45.80
38606;DHT22;24365;48.446;8.850;2024-02-26T13:27:20;12.30;45.60
38606;DHT22;24365;48.446;8.850;2024-02-26T13:32:21;12.30;45.20
38606;DHT22;24365;48.446;8.850;2024-02-26T13:37:22;12.40;44.30
38606;DHT22;24365;48.446;8.850;2024-02-26T13:42:23;12.60;43.90
38606;DHT22;24365;48.446;8.850;2024-02-26T13:47:24;12.70;42.60
38606;DHT22;24365;48.446;8.850;2024-02-26T13:52:25;12.70;42.60
38606;DHT22;24365;48.446;8.850;2024-02-26T13:57:26;12.60;42.00
38606;DHT22;24365;48.446;8.850;2024-02-26T14:02:27;12.50;41.50
38606;DHT22;24365;48.446;8.850;2024-02-26T14:07:29;12.50;41.80
38606;DHT22;24365;48.446;8.850;2024-02-26T14:12:32;12.50;41.50
38606;DHT22;24365;48.446;8.850;2024-02-26T14:17:34;12.50;40.90
38606;DHT22;24365;48.446;8.850;2024-02-26T14:22:36;12.50;41.00
38606;DHT22;24365;48.446;8.850;2024-02-26T14:27:37;12.50;41.00
38606;DHT22;24365;48.446;8.850;2024-02-26T14:32:38;12.50;40.80
38606;DHT22;24365;48.446;8.850;2024-02-26T14:37:39;12.50;41.10
38606;DHT22;24365;48.446;8.850;2024-02-26T14:42:40;12.40;41.00
38606;DHT22;24365;48.446;8.850;2024-02-26T14:47:41;12.40;42.00
38606;DHT22;24365;48.446;8.850;2024-02-26T14:52:42;12.30;42.10
38606;DHT22;24365;48.446;8.850;2024-02-26T14:57:42;12.30;42.50
38606;DHT22;24365;48.446;8.850;2024-02-26T15:02:47;12.30;42.10
38606;DHT22;24365;48.446;8.850;2024-02-26T15:07:48;12.30;42.40
38606;DHT22;24365;48.446;8.850;2024-02-26T15:12:49;12.30;41.80
38606;DHT22;24365;48.446;8.850;2024-02-26T15:17:51;12.30;41.00
38606;DHT22;24365;48.446;8.850;2024-02-26T15:22:53;12.30;40.60
38606;DHT22;24365;48.446;8.850;2024-02-26T15:27:54;12.20;41.50
38606;DHT22;24365;48.446;8.850;2024-02-26T15:32:58;12.10;39.80
38606;DHT22;24365;48.446;8.850;2024-02-26T15:37:58;12.20;39.40
38606;DHT22;24365;48.446;8.850;2024-02-26T15:43:00;12.10;39.10
38606;DHT22;24365;48.446;8.850;2024-02-26T15:48:00;12.10;39.20
38606;DHT22;24365;48.446;8.850;2024-02-26T15:53:01;12.00;39.70
38606;DHT22;24365;48.446;8.850;2024-02-26T15:58:02;11.80;39.70
38606;DHT22;24365;48.446;8.850;2024-02-26T16:03:03;11.80;39.20
38606;DHT22;24365;48.446;8.850;2024-02-26T16:08:09;11.70;40.30
38606;DHT22;24365;48.446;8.850;2024-02-26T16:13:12;11.50;40.70
38606;DHT22;24365;48.446;8.850;2024-02-26T16:18:14;11.40;41.70
38606;DHT22;24365;48.446;8.850;2024-02-26T16:23:15;11.20;41.80
38606;DHT22;24365;48.446;8.850;2024-02-26T16:28:18;11.20;42.10
38606;DHT22;24365;48.446;8.850;2024-02-26T16:33:19;11.10;43.30
38606;DHT22;24365;48.446;8.850;2024-02-26T16:38:20;10.90;43.00
38606;DHT22;24365;48.446;8.850;2024-02-26T16:43:21;10.80;44.00
38606;DHT22;24365;48.446;8.850;2024-02-26T16:48:22;10.70;44.20
38606;DHT22;24365;48.446;8.850;2024-02-26T16:53:22;10.60;44.30
38606;DHT22;24365;48.446;8.850;2024-02-26T16:58:24;10.50;45.00
38606;DHT22;24365;48.446;8.850;2024-02-26T17:03:25;10.40;46.00
38606;DHT22;24365;48.446;8.850;2024-02-26T17:08:28;10.30;45.70
38606;DHT22;24365;48.446;8.850;2024-02-26T17:13:32;10.20;45.90
38606;DHT22;24365;48.446;8.850;2024-02-26T17:18:35;10.10;46.50
38606;DHT22;24365;48.446;8.850;2024-02-26T17:23:35;10.20;45.80
38606;DHT22;24365;48.446;8.850;2024-02-26T17:28:37;10.20;45.40
38606;DHT22;24365;48.446;8.850;2024-02-26T17:33:43;10.30;45.50
38606;DHT22;24365;48.446;8.850;2024-02-26T17:38:44;10.30;45.70
38606;DHT22;24365;48.446;8.850;2024-02-26T17:43:46;10.30;45.90
38606;DHT22;24365;48.446;8.850;2024-02-26T17:48:47;10.20;46.40
38606;DHT22;24365;48.446;8.850;2024-02-26T17:53:48;10.20;46.40
38606;DHT22;24365;48.446;8.850;2024-02-26T17:58:49;10.20;46.50
38606;DHT22;24365;48.446;8.850;2024-02-26T18:03:50;10.10;46.70
38606;DHT22;24365;48.446;8.850;2024-02-26T18:08:53;9.90;48.00
38606;DHT22;24365;48.446;8.850;2024-02-26T18:13:54;9.80;50.00
38606;DHT22;24365;48.446;8.850;2024-02-26T18:18:55;9.80;51.30
38606;DHT22;24365;48.446;8.850;2024-02-26T18:23:56;9.60;52.30
38606;DHT22;24365;48.446;8.850;2024-02-26T18:28:57;9.60;53.30
38606;DHT22;24365;48.446;8.850;2024-02-26T18:33:58;9.50;53.40
38606;DHT22;24365;48.446;8.850;2024-02-26T18:38:59;9.50;54.50
38606;DHT22;24365;48.446;8.850;2024-02-26T18:44:00;9.30;54.60
38606;DHT22;24365;48.446;8.850;2024-02-26T18:49:01;9.20;55.30
38606;DHT22;24365;48.446;8.850;2024-02-26T18:54:02;9.10;56.50
38606;DHT22;24365;48.446;8.850;2024-02-26T18:59:03;9.00;57.40
38606;DHT22;24365;48.446;8.850;2024-02-26T19:04:04;8.90;58.30
38606;DHT22;24365;48.446;8.850;2024-02-26T19:09:05;8.90;59.00
38606;DHT22;24365;48.446;8.850;2024-02-26T19:14:07;8.90;60.10
38606;DHT22;24365;48.446;8.850;2024-02-26T19:19:08;8.80;60.50
38606;DHT22;24365;48.446;8.850;2024-02-26T19:24:09;8.80;61.70
38606;DHT22;24365;48.446;8.850;2024-02-26T19:29:10;8.70;62.40
38606;DHT22;24365;48.446;8.850;2024-02-26T19:34:11;8.60;63.80
38606;DHT22;24365;48.446;8.850;2024-02-26T19:39:12;8.60;64.30
38606;DHT22;24365;48.446;8.850;2024-02-26T19:44:13;8.60;65.00
38606;DHT22;24365;48.446;8.850;2024-02-26T19:49:14;8.50;65.80
38606;DHT22;24365;48.446;8.850;2024-02-26T19:54:15;8.50;66.20
38606;DHT22;24365;48.446;8.850;2024-02-26T19:59:16;8.50;66.30
38606;DHT22;24365;48.446;8.850;2024-02-26T20:04:19;8.40;66.50
38606;DHT22;24365;48.446;8.850;2024-02-26T20:09:21;8.30;67.10
38606;DHT22;24365;48.446;8.850;2024-02-26T20:14:27;8.30;67.40
38606;DHT22;24365;48.446;8.850;2024-02-26T20:19:28;8.20;68.00
38606;DHT22;24365;48.446;8.850;2024-02-26T20:24:29;8.20;68.10
38606;DHT22;24365;48.446;8.850;2024-02-26T20:29:30;8.20;68.60
38606;DHT22;24365;48.446;8.850;2024-02-26T20:34:32;8.10;68.90
38606;DHT22;24365;48.446;8.850;2024-02-26T20:39:33;8.10;69.20
38606;DHT22;24365;48.446;8.850;2024-02-26T20:44:35;8.20;69.20
38606;DHT22;24365;48.446;8.850;2024-02-26T20:49:36;8.10;69.70
38606;DHT22;24365;48.446;8.850;2024-02-26T20:54:37;8.00;69.70
38606;DHT22;24365;48.446;8.850;2024-02-26T20:59:38;8.00;69.90
38606;DHT22;24365;48.446;8.850;2024-02-26T21:04:42;7.90;70.20
38606;DHT22;24365;48.446;8.850;2024-02-26T21:09:43;7.90;70.40
38606;DHT22;24365;48.446;8.850;2024-02-26T21:14:45;7.90;70.40
38606;DHT22;24365;48.446;8.850;2024-02-26T21:19:46;7.80;70.60
38606;DHT22;24365;48.446;8.850;2024-02-26T21:24:47;7.80;70.50
38606;DHT22;24365;48.446;8.850;2024-02-26T21:29:47;7.80;70.70
38606;DHT22;24365;48.446;8.850;2024-02-26T21:34:48;7.70;71.10
38606;DHT22;24365;48.446;8.850;2024-02-26T21:39:49;7.70;70.90
38606;DHT22;24365;48.446;8.850;2024-02-26T21:44:51;7.70;71.20
38606;DHT22;24365;48.446;8.850;2024-02-26T21:49:51;7.60;71.10
38606;DHT22;24365;48.446;8.850;2024-02-26T21:54:53;7.60;71.10
38606;DHT22;24365;48.446;8.850;2024-02-26T21:59:55;7.60;71.50
38606;DHT22;24365;48.446;8.850;2024-02-26T22:04:56;7.50;71.60
38606;DHT22;24365;48.446;8.850;2024-02-26T22:09:57;7.50;72.20
38606;DHT22;24365;48.446;8.850;2024-02-26T22:14:59;7.50;71.70
38606;DHT22;24365;48.446;8.850;2024-02-26T22:20:00;7.50;72.00
38606;DHT22;24365;48.446;8.850;2024-02-26T22:25:02;7.40;72.10
38606;DHT22;24365;48.446;8.850;2024-02-26T22:30:04;7.40;72.40
38606;DHT22;24365;48.446;8.850;2024-02-26T22:35:05;7.30;72.80
38606;DHT22;24365;48.446;8.850;2024-02-26T22:40:06;7.30;72.90
38606;DHT22;24365;48.446;8.850;2024-02-26T22:45:07;7.40;72.80
38606;DHT22;24365;48.446;8.850;2024-02-26T22:50:08;7.30;72.90
38606;DHT22;24365;48.446;8.850;2024-02-26T22:55:09;7.20;73.30
38606;DHT22;24365;48.446;8.850;2024-02-26T23:00:10;7.20;73.40
38606;DHT22;24365;48.446;8.850;2024-02-26T23:05:31;7.20;73.80
38606;DHT22;24365;48.446;8.850;2024-02-26T23:10:32;7.20;73.60
38606;DHT22;24365;48.446;8.850;2024-02-26T23:15:33;7.20;73.90
38606;DHT22;24365;48.446;8.850;2024-02-26T23:20:35;7.10;74.50
38606;DHT22;24365;48.446;8.850;2024-02-26T23:25:37;7.10;75.00
38606;DHT22;24365;48.446;8.850;2024-02-26T23:30:38;7.10;74.70
38606;DHT22;24365;48.446;8.850;2024-02-26T23:35:40;7.00;74.90
38606;DHT22;24365;48.446;8.850;2024-02-26T23:40:40;7.00;75.20
38606;DHT22;24365;48.446;8.850;2024-02-26T23:45:41;7.00;75.60
38606;DHT22;24365;48.446;8.850;2024-02-26T23:50:42;7.00;75.90
38606;DHT22;24365;48.446;8.850;2024-02-26T23:55:43;7.00;75.70
